sensor_id;sensor_type;location;lat;lon;timestamp;temperature;humidity
1123;DHT22;548;48.778;9.252;2023-07-08T00:02:12;21.60;68.40
1123;DHT22;548;48.778;9.252;2023-07-08T00:04:40;21.50;68.30
1123;DHT22;548;48.778;9.252;2023-07-08T00:07:11;21.50;68.90
1123;DHT22;548;48.778;9.252;2023-07-08T00:09:38;21.60;68.50
1123;DHT22;548;48.778;9.252;2023-07-08T00:12:09;21.60;69.30
1123;DHT22;548;48.778;9.252;2023-07-08T00:14:36;21.60;69.20
1123;DHT22;548;48.778;9.252;2023-07-08T00:17:08;21.60;69.20
1123;DHT22;548;48.778;9.252;2023-07-08T00:19:36;21.60;68.60
1123;DHT22;548;48.778;9.252;2023-07-08T00:22:08;21.60;68.40
1123;DHT22;548;48.778;9.252;2023-07-08T00:24:36;21.60;68.30
1123;DHT22;548;48.778;9.252;2023-07-08T00:27:03;21.60;68.70
1123;DHT22;548;48.778;9.252;2023-07-08T00:29:30;21.50;69.00
1123;DHT22;548;48.778;9.252;2023-07-08T00:31:56;21.40;69.10
1123;DHT22;548;48.778;9.252;2023-07-08T00:34:25;21.40;69.80
1123;DHT22;548;48.778;9.252;2023-07-08T00:36:51;21.40;69.40
1123;DHT22;548;48.778;9.252;2023-07-08T00:39:18;21.40;69.20
1123;DHT22;548;48.778;9.252;2023-07-08T00:41:45;21.30;70.30
1123;DHT22;548;48.778;9.252;2023-07-08T00:44:13;21.20;70.40
1123;DHT22;548;48.778;9.252;2023-07-08T00:46:50;21.10;70.60
1123;DHT22;548;48.778;9.252;2023-07-08T00:49:31;21.00;71.40
1123;DHT22;548;48.778;9.252;2023-07-08T00:52:21;20.90;72.20
1123;DHT22;548;48.778;9.252;2023-07-08T00:54:53;20.90;72.70
1123;DHT22;548;48.778;9.252;2023-07-08T00:59:51;20.70;73.80
1123;DHT22;548;48.778;9.252;2023-07-08T01:02:22;20.60;74.20
1123;DHT22;548;48.778;9.252;2023-07-08T01:04:55;20.60;74.00
1123;DHT22;548;48.778;9.252;2023-07-08T01:07:24;20.50;73.80
1123;DHT22;548;48.778;9.252;2023-07-08T01:09:57;20.50;74.10
1123;DHT22;548;48.778;9.252;2023-07-08T01:12:29;20.40;74.70
1123;DHT22;548;48.778;9.252;2023-07-08T01:14:57;20.30;75.70
1123;DHT22;548;48.778;9.252;2023-07-08T01:17:26;20.20;76.00
1123;DHT22;548;48.778;9.252;2023-07-08T01:19:59;20.10;76.10
1123;DHT22;548;48.778;9.252;2023-07-08T01:22:27;20.00;76.90
1123;DHT22;548;48.778;9.252;2023-07-08T01:24:57;19.90;78.20
1123;DHT22;548;48.778;9.252;2023-07-08T01:27:29;19.80;79.30
1123;DHT22;548;48.778;9.252;2023-07-08T01:29:57;19.80;80.50
1123;DHT22;548;48.778;9.252;2023-07-08T01:32:24;19.70;81.30
1123;DHT22;548;48.778;9.252;2023-07-08T01:34:56;19.60;83.30
1123;DHT22;548;48.778;9.252;2023-07-08T01:37:34;19.50;84.10
1123;DHT22;548;48.778;9.252;2023-07-08T01:40:25;19.50;84.20
1123;DHT22;548;48.778;9.252;2023-07-08T01:42:53;19.40;85.70
1123;DHT22;548;48.778;9.252;2023-07-08T01:45:21;19.40;86.60
1123;DHT22;548;48.778;9.252;2023-07-08T01:47:51;19.40;87.50
1123;DHT22;548;48.778;9.252;2023-07-08T01:50:20;19.40;87.80
1123;DHT22;548;48.778;9.252;2023-07-08T01:52:50;19.30;88.10
1123;DHT22;548;48.778;9.252;2023-07-08T01:55:21;19.20;88.90
1123;DHT22;548;48.778;9.252;2023-07-08T01:57:47;19.20;89.40
1123;DHT22;548;48.778;9.252;2023-07-08T02:00:14;19.20;90.20
1123;DHT22;548;48.778;9.252;2023-07-08T02:02:41;19.10;90.50
1123;DHT22;548;48.778;9.252;2023-07-08T02:05:08;19.10;91.00
1123;DHT22;548;48.778;9.252;2023-07-08T02:07:35;19.00;91.50
1123;DHT22;548;48.778;9.252;2023-07-08T02:10:03;19.10;91.00
1123;DHT22;548;48.778;9.252;2023-07-08T02:12:30;19.00;91.50
1123;DHT22;548;48.778;9.252;2023-07-08T02:14:59;19.00;91.90
1123;DHT22;548;48.778;9.252;2023-07-08T02:17:26;19.00;91.90
1123;DHT22;548;48.778;9.252;2023-07-08T02:19:54;19.00;91.90
1123;DHT22;548;48.778;9.252;2023-07-08T02:22:21;19.00;92.10
1123;DHT22;548;48.778;9.252;2023-07-08T02:24:48;19.10;92.10
1123;DHT22;548;48.778;9.252;2023-07-08T02:27:16;19.10;91.50
1123;DHT22;548;48.778;9.252;2023-07-08T02:29:43;19.10;91.60
1123;DHT22;548;48.778;9.252;2023-07-08T02:32:10;19.00;91.70
1123;DHT22;548;48.778;9.252;2023-07-08T02:34:37;18.80;92.20
1123;DHT22;548;48.778;9.252;2023-07-08T02:37:04;18.70;92.80
1123;DHT22;548;48.778;9.252;2023-07-08T02:39:31;18.70;93.00
1123;DHT22;548;48.778;9.252;2023-07-08T02:41:57;18.70;93.00
1123;DHT22;548;48.778;9.252;2023-07-08T02:44:25;18.70;92.80
1123;DHT22;548;48.778;9.252;2023-07-08T02:46:52;18.60;93.00
1123;DHT22;548;48.778;9.252;2023-07-08T02:49:19;18.60;93.70
1123;DHT22;548;48.778;9.252;2023-07-08T02:51:45;18.70;93.40
1123;DHT22;548;48.778;9.252;2023-07-08T02:54:12;18.80;93.50
1123;DHT22;548;48.778;9.252;2023-07-08T02:56:39;18.80;93.60
1123;DHT22;548;48.778;9.252;2023-07-08T02:59:05;18.90;93.60
1123;DHT22;548;48.778;9.252;2023-07-08T03:01:34;19.10;93.10
1123;DHT22;548;48.778;9.252;2023-07-08T03:04:07;19.10;92.90
1123;DHT22;548;48.778;9.252;2023-07-08T03:06:34;19.10;93.20
1123;DHT22;548;48.778;9.252;2023-07-08T03:09:01;19.10;93.00
1123;DHT22;548;48.778;9.252;2023-07-08T03:11:27;19.30;92.50
1123;DHT22;548;48.778;9.252;2023-07-08T03:13:54;19.40;92.20
1123;DHT22;548;48.778;9.252;2023-07-08T03:16:21;19.50;91.90
1123;DHT22;548;48.778;9.252;2023-07-08T03:18:49;19.60;91.50
1123;DHT22;548;48.778;9.252;2023-07-08T03:21:17;19.60;92.10
1123;DHT22;548;48.778;9.252;2023-07-08T03:23:44;19.60;92.10
1123;DHT22;548;48.778;9.252;2023-07-08T03:26:13;19.50;91.70
1123;DHT22;548;48.778;9.252;2023-07-08T03:28:41;19.50;91.60
1123;DHT22;548;48.778;9.252;2023-07-08T03:31:09;19.60;91.80
1123;DHT22;548;48.778;9.252;2023-07-08T03:33:36;19.70;92.20
1123;DHT22;548;48.778;9.252;2023-07-08T03:36:07;19.70;92.30
1123;DHT22;548;48.778;9.252;2023-07-08T03:38:35;19.70;92.60
1123;DHT22;548;48.778;9.252;2023-07-08T03:41:02;19.70;92.60
1123;DHT22;548;48.778;9.252;2023-07-08T03:43:28;19.70;92.10
1123;DHT22;548;48.778;9.252;2023-07-08T03:45:55;19.80;91.60
1123;DHT22;548;48.778;9.252;2023-07-08T03:48:22;19.80;91.50
1123;DHT22;548;48.778;9.252;2023-07-08T03:50:49;19.90;92.50
1123;DHT22;548;48.778;9.252;2023-07-08T03:53:17;19.90;93.10
1123;DHT22;548;48.778;9.252;2023-07-08T03:55:44;19.90;92.30
1123;DHT22;548;48.778;9.252;2023-07-08T03:58:11;20.00;92.10
1123;DHT22;548;48.778;9.252;2023-07-08T04:00:37;20.10;91.90
1123;DHT22;548;48.778;9.252;2023-07-08T04:03:05;20.20;91.50
1123;DHT22;548;48.778;9.252;2023-07-08T04:05:31;20.20;91.30
1123;DHT22;548;48.778;9.252;2023-07-08T04:07:58;20.30;91.20
1123;DHT22;548;48.778;9.252;2023-07-08T04:10:26;20.30;90.90
1123;DHT22;548;48.778;9.252;2023-07-08T04:12:53;20.40;90.90
1123;DHT22;548;48.778;9.252;2023-07-08T04:15:19;20.50;90.90
1123;DHT22;548;48.778;9.252;2023-07-08T04:17:51;20.40;90.80
1123;DHT22;548;48.778;9.252;2023-07-08T04:20:22;20.40;91.00
1123;DHT22;548;48.778;9.252;2023-07-08T04:22:48;20.40;91.30
1123;DHT22;548;48.778;9.252;2023-07-08T04:25:17;20.40;91.00
1123;DHT22;548;48.778;9.252;2023-07-08T04:27:46;20.50;91.10
1123;DHT22;548;48.778;9.252;2023-07-08T04:30:21;20.60;91.00
1123;DHT22;548;48.778;9.252;2023-07-08T04:32:49;21.00;90.50
1123;DHT22;548;48.778;9.252;2023-07-08T04:35:16;21.60;89.20
1123;DHT22;548;48.778;9.252;2023-07-08T04:37:43;22.20;86.90
1123;DHT22;548;48.778;9.252;2023-07-08T04:40:16;22.70;84.30
1123;DHT22;548;48.778;9.252;2023-07-08T04:42:45;23.30;81.70
1123;DHT22;548;48.778;9.252;2023-07-08T04:45:14;23.90;78.20
1123;DHT22;548;48.778;9.252;2023-07-08T04:47:41;24.50;76.20
1123;DHT22;548;48.778;9.252;2023-07-08T04:50:10;24.70;74.40
1123;DHT22;548;48.778;9.252;2023-07-08T04:52:36;24.70;73.80
1123;DHT22;548;48.778;9.252;2023-07-08T04:55:03;24.70;73.60
1123;DHT22;548;48.778;9.252;2023-07-08T04:57:30;24.50;73.90
1123;DHT22;548;48.778;9.252;2023-07-08T04:59:58;24.40;74.20
1123;DHT22;548;48.778;9.252;2023-07-08T05:02:25;24.30;75.00
1123;DHT22;548;48.778;9.252;2023-07-08T05:04:52;24.20;75.60
1123;DHT22;548;48.778;9.252;2023-07-08T05:07:18;24.00;76.10
1123;DHT22;548;48.778;9.252;2023-07-08T05:09:45;23.70;77.30
1123;DHT22;548;48.778;9.252;2023-07-08T05:12:12;23.40;78.30
1123;DHT22;548;48.778;9.252;2023-07-08T05:14:39;23.60;78.10
1123;DHT22;548;48.778;9.252;2023-07-08T05:17:07;23.80;76.00
1123;DHT22;548;48.778;9.252;2023-07-08T05:19:33;24.10;75.00
1123;DHT22;548;48.778;9.252;2023-07-08T05:22:00;24.30;74.60
1123;DHT22;548;48.778;9.252;2023-07-08T05:24:27;24.30;74.30
1123;DHT22;548;48.778;9.252;2023-07-08T05:29:21;25.40;70.60
1123;DHT22;548;48.778;9.252;2023-07-08T05:31:48;26.00;69.90
1123;DHT22;548;48.778;9.252;2023-07-08T05:34:16;26.50;67.60
1123;DHT22;548;48.778;9.252;2023-07-08T05:36:43;26.80;66.00
1123;DHT22;548;48.778;9.252;2023-07-08T05:39:10;26.60;66.70
1123;DHT22;548;48.778;9.252;2023-07-08T05:41:36;26.30;66.50
1123;DHT22;548;48.778;9.252;2023-07-08T05:44:03;25.90;67.50
1123;DHT22;548;48.778;9.252;2023-07-08T05:46:30;25.60;68.20
1123;DHT22;548;48.778;9.252;2023-07-08T05:48:57;25.30;68.70
1123;DHT22;548;48.778;9.252;2023-07-08T05:51:25;25.10;69.90
1123;DHT22;548;48.778;9.252;2023-07-08T05:53:52;25.10;70.10
1123;DHT22;548;48.778;9.252;2023-07-08T05:56:18;25.50;69.30
1123;DHT22;548;48.778;9.252;2023-07-08T05:58:45;26.10;67.10
1123;DHT22;548;48.778;9.252;2023-07-08T06:01:12;26.40;65.50
1123;DHT22;548;48.778;9.252;2023-07-08T06:03:39;26.40;65.30
1123;DHT22;548;48.778;9.252;2023-07-08T06:06:05;26.70;65.00
1123;DHT22;548;48.778;9.252;2023-07-08T06:08:33;26.80;63.10
1123;DHT22;548;48.778;9.252;2023-07-08T06:11:00;26.70;63.40
1123;DHT22;548;48.778;9.252;2023-07-08T06:13:27;26.60;63.50
1123;DHT22;548;48.778;9.252;2023-07-08T06:15:54;26.60;63.60
1123;DHT22;548;48.778;9.252;2023-07-08T06:18:20;26.50;63.70
1123;DHT22;548;48.778;9.252;2023-07-08T06:20:54;26.60;63.80
1123;DHT22;548;48.778;9.252;2023-07-08T06:23:21;26.70;63.40
1123;DHT22;548;48.778;9.252;2023-07-08T06:25:50;27.00;62.90
1123;DHT22;548;48.778;9.252;2023-07-08T06:28:17;27.70;61.60
1123;DHT22;548;48.778;9.252;2023-07-08T06:30:43;28.10;60.00
1123;DHT22;548;48.778;9.252;2023-07-08T06:33:10;28.60;59.00
1123;DHT22;548;48.778;9.252;2023-07-08T06:35:37;28.80;58.70
1123;DHT22;548;48.778;9.252;2023-07-08T06:38:05;28.70;58.20
1123;DHT22;548;48.778;9.252;2023-07-08T06:40:32;28.40;59.00
1123;DHT22;548;48.778;9.252;2023-07-08T06:43:01;27.90;59.80
1123;DHT22;548;48.778;9.252;2023-07-08T06:45:28;27.40;60.50
1123;DHT22;548;48.778;9.252;2023-07-08T06:47:55;27.10;62.00
1123;DHT22;548;48.778;9.252;2023-07-08T06:50:21;26.90;62.40
1123;DHT22;548;48.778;9.252;2023-07-08T06:52:48;26.70;63.10
1123;DHT22;548;48.778;9.252;2023-07-08T06:55:15;26.70;64.10
1123;DHT22;548;48.778;9.252;2023-07-08T06:57:42;26.40;65.80
1123;DHT22;548;48.778;9.252;2023-07-08T07:00:11;26.30;66.70
1123;DHT22;548;48.778;9.252;2023-07-08T07:02:38;26.60;66.60
1123;DHT22;548;48.778;9.252;2023-07-08T07:05:05;26.90;65.30
1123;DHT22;548;48.778;9.252;2023-07-08T07:07:32;26.60;66.10
1123;DHT22;548;48.778;9.252;2023-07-08T07:09:59;26.40;67.10
1123;DHT22;548;48.778;9.252;2023-07-08T07:12:26;26.30;67.40
1123;DHT22;548;48.778;9.252;2023-07-08T07:14:53;26.20;67.80
1123;DHT22;548;48.778;9.252;2023-07-08T07:17:23;26.20;67.90
1123;DHT22;548;48.778;9.252;2023-07-08T07:19:50;26.30;68.00
1123;DHT22;548;48.778;9.252;2023-07-08T07:22:17;26.30;68.30
1123;DHT22;548;48.778;9.252;2023-07-08T07:24:44;26.30;68.50
1123;DHT22;548;48.778;9.252;2023-07-08T07:27:11;26.30;68.80
1123;DHT22;548;48.778;9.252;2023-07-08T07:29:42;26.30;68.90
1123;DHT22;548;48.778;9.252;2023-07-08T07:32:10;26.20;69.80
1123;DHT22;548;48.778;9.252;2023-07-08T07:34:39;26.30;69.70
1123;DHT22;548;48.778;9.252;2023-07-08T07:37:06;26.60;69.00
1123;DHT22;548;48.778;9.252;2023-07-08T07:39:32;26.60;68.70
1123;DHT22;548;48.778;9.252;2023-07-08T07:41:59;26.70;68.40
1123;DHT22;548;48.778;9.252;2023-07-08T07:44:26;27.00;67.80
1123;DHT22;548;48.778;9.252;2023-07-08T07:46:53;27.10;67.60
1123;DHT22;548;48.778;9.252;2023-07-08T07:49:20;27.10;68.30
1123;DHT22;548;48.778;9.252;2023-07-08T07:51:49;27.00;68.70
1123;DHT22;548;48.778;9.252;2023-07-08T07:54:15;27.00;69.00
1123;DHT22;548;48.778;9.252;2023-07-08T07:56:42;27.10;69.20
1123;DHT22;548;48.778;9.252;2023-07-08T07:59:10;27.30;68.70
1123;DHT22;548;48.778;9.252;2023-07-08T08:01:37;27.80;67.90
1123;DHT22;548;48.778;9.252;2023-07-08T08:04:04;28.60;65.50
1123;DHT22;548;48.778;9.252;2023-07-08T08:06:31;29.30;63.40
1123;DHT22;548;48.778;9.252;2023-07-08T08:08:59;30.10;61.60
1123;DHT22;548;48.778;9.252;2023-07-08T08:11:26;30.70;59.40
1123;DHT22;548;48.778;9.252;2023-07-08T08:13:52;30.70;59.00
1123;DHT22;548;48.778;9.252;2023-07-08T08:16:19;30.80;58.70
1123;DHT22;548;48.778;9.252;2023-07-08T08:18:46;31.80;57.90
1123;DHT22;548;48.778;9.252;2023-07-08T08:21:13;32.90;55.60
1123;DHT22;548;48.778;9.252;2023-07-08T08:23:40;33.60;54.10
1123;DHT22;548;48.778;9.252;2023-07-08T08:26:08;33.30;53.70
1123;DHT22;548;48.778;9.252;2023-07-08T08:28:35;32.70;54.20
1123;DHT22;548;48.778;9.252;2023-07-08T08:31:02;32.30;54.70
1123;DHT22;548;48.778;9.252;2023-07-08T08:33:29;31.30;56.20
1123;DHT22;548;48.778;9.252;2023-07-08T08:35:55;31.20;56.80
1123;DHT22;548;48.778;9.252;2023-07-08T08:38:22;31.30;56.70
1123;DHT22;548;48.778;9.252;2023-07-08T08:40:49;31.70;55.70
1123;DHT22;548;48.778;9.252;2023-07-08T08:43:19;32.00;55.20
1123;DHT22;548;48.778;9.252;2023-07-08T08:45:51;31.70;55.40
1123;DHT22;548;48.778;9.252;2023-07-08T08:48:20;31.70;55.70
1123;DHT22;548;48.778;9.252;2023-07-08T08:50:51;31.40;56.10
1123;DHT22;548;48.778;9.252;2023-07-08T08:53:20;31.10;57.10
1123;DHT22;548;48.778;9.252;2023-07-08T08:55:51;30.90;57.00
1123;DHT22;548;48.778;9.252;2023-07-08T08:58:33;30.50;57.70
1123;DHT22;548;48.778;9.252;2023-07-08T09:01:04;30.50;58.00
1123;DHT22;548;48.778;9.252;2023-07-08T09:03:38;30.50;57.80
1123;DHT22;548;48.778;9.252;2023-07-08T09:06:11;30.70;57.90
1123;DHT22;548;48.778;9.252;2023-07-08T09:08:38;31.10;57.40
1123;DHT22;548;48.778;9.252;2023-07-08T09:11:14;31.40;56.90
1123;DHT22;548;48.778;9.252;2023-07-08T09:13:44;32.00;56.10
1123;DHT22;548;48.778;9.252;2023-07-08T09:16:18;32.90;54.50
1123;DHT22;548;48.778;9.252;2023-07-08T09:18:56;34.10;52.70
1123;DHT22;548;48.778;9.252;2023-07-08T09:21:28;34.70;50.80
1123;DHT22;548;48.778;9.252;2023-07-08T09:24:00;34.60;50.60
1123;DHT22;548;48.778;9.252;2023-07-08T09:26:29;34.30;50.70
1123;DHT22;548;48.778;9.252;2023-07-08T09:28:57;34.00;50.50
1123;DHT22;548;48.778;9.252;2023-07-08T09:31:26;34.40;50.00
1123;DHT22;548;48.778;9.252;2023-07-08T09:34:04;34.70;49.70
1123;DHT22;548;48.778;9.252;2023-07-08T09:36:31;36.10;47.60
1123;DHT22;548;48.778;9.252;2023-07-08T09:38:57;36.20;46.40
1123;DHT22;548;48.778;9.252;2023-07-08T09:41:30;35.00;47.10
1123;DHT22;548;48.778;9.252;2023-07-08T09:44:15;34.70;47.40
1123;DHT22;548;48.778;9.252;2023-07-08T09:46:42;34.30;47.90
1123;DHT22;548;48.778;9.252;2023-07-08T09:49:15;34.60;48.50
1123;DHT22;548;48.778;9.252;2023-07-08T09:51:43;34.50;48.60
1123;DHT22;548;48.778;9.252;2023-07-08T09:54:10;33.90;49.60
1123;DHT22;548;48.778;9.252;2023-07-08T09:56:40;33.90;49.30
1123;DHT22;548;48.778;9.252;2023-07-08T09:59:12;34.90;47.70
1123;DHT22;548;48.778;9.252;2023-07-08T10:01:40;35.20;47.20
1123;DHT22;548;48.778;9.252;2023-07-08T10:04:07;34.80;47.40
1123;DHT22;548;48.778;9.252;2023-07-08T10:06:34;34.90;47.50
1123;DHT22;548;48.778;9.252;2023-07-08T10:09:02;35.20;47.50
1123;DHT22;548;48.778;9.252;2023-07-08T10:11:32;34.80;47.30
1123;DHT22;548;48.778;9.252;2023-07-08T10:14:02;35.10;47.10
1123;DHT22;548;48.778;9.252;2023-07-08T10:16:33;34.40;48.20
1123;DHT22;548;48.778;9.252;2023-07-08T10:19:00;33.70;49.40
1123;DHT22;548;48.778;9.252;2023-07-08T10:21:34;32.90;50.60
1123;DHT22;548;48.778;9.252;2023-07-08T10:24:24;31.60;52.20
1123;DHT22;548;48.778;9.252;2023-07-08T10:26:56;30.80;54.10
1123;DHT22;548;48.778;9.252;2023-07-08T10:29:29;30.70;54.80
1123;DHT22;548;48.778;9.252;2023-07-08T10:32:07;30.80;54.70
1123;DHT22;548;48.778;9.252;2023-07-08T10:34:43;30.40;65.00
1123;DHT22;548;48.778;9.252;2023-07-08T10:37:22;30.30;54.50
1123;DHT22;548;48.778;9.252;2023-07-08T10:40:10;31.10;53.60
1123;DHT22;548;48.778;9.252;2023-07-08T10:43:02;31.80;52.30
1123;DHT22;548;48.778;9.252;2023-07-08T10:45:38;32.10;51.90
1123;DHT22;548;48.778;9.252;2023-07-08T10:48:19;31.90;52.10
1123;DHT22;548;48.778;9.252;2023-07-08T10:51:01;31.50;53.00
1123;DHT22;548;48.778;9.252;2023-07-08T10:53:47;31.70;52.80
1123;DHT22;548;48.778;9.252;2023-07-08T10:56:20;32.50;51.30
1123;DHT22;548;48.778;9.252;2023-07-08T10:59:06;33.30;50.10
1123;DHT22;548;48.778;9.252;2023-07-08T11:01:47;33.90;48.40
1123;DHT22;548;48.778;9.252;2023-07-08T11:04:40;33.60;48.50
1123;DHT22;548;48.778;9.252;2023-07-08T11:07:13;34.10;48.40
1123;DHT22;548;48.778;9.252;2023-07-08T11:09:48;34.40;47.70
1123;DHT22;548;48.778;9.252;2023-07-08T11:12:23;34.00;48.10
1123;DHT22;548;48.778;9.252;2023-07-08T11:14:57;34.10;47.50
1123;DHT22;548;48.778;9.252;2023-07-08T11:17:29;34.20;47.30
1123;DHT22;548;48.778;9.252;2023-07-08T11:20:03;34.80;46.40
1123;DHT22;548;48.778;9.252;2023-07-08T11:22:38;36.10;44.80
1123;DHT22;548;48.778;9.252;2023-07-08T11:25:16;35.30;45.10
1123;DHT22;548;48.778;9.252;2023-07-08T11:27:45;35.40;45.30
1123;DHT22;548;48.778;9.252;2023-07-08T11:30:14;34.20;46.40
1123;DHT22;548;48.778;9.252;2023-07-08T11:32:43;34.00;47.00
1123;DHT22;548;48.778;9.252;2023-07-08T11:35:19;34.00;46.90
1123;DHT22;548;48.778;9.252;2023-07-08T11:37:46;34.40;46.20
1123;DHT22;548;48.778;9.252;2023-07-08T11:40:19;33.50;47.30
1123;DHT22;548;48.778;9.252;2023-07-08T11:42:48;33.70;47.70
1123;DHT22;548;48.778;9.252;2023-07-08T11:45:24;34.40;47.70
1123;DHT22;548;48.778;9.252;2023-07-08T11:47:52;35.50;45.50
1123;DHT22;548;48.778;9.252;2023-07-08T11:50:23;35.40;44.80
1123;DHT22;548;48.778;9.252;2023-07-08T11:52:52;35.70;44.80
1123;DHT22;548;48.778;9.252;2023-07-08T11:55:25;34.40;45.60
1123;DHT22;548;48.778;9.252;2023-07-08T11:57:55;34.40;45.60
1123;DHT22;548;48.778;9.252;2023-07-08T12:00:25;34.90;44.90
1123;DHT22;548;48.778;9.252;2023-07-08T12:02:57;35.70;43.80
1123;DHT22;548;48.778;9.252;2023-07-08T12:05:33;37.00;42.10
1123;DHT22;548;48.778;9.252;2023-07-08T12:08:01;36.80;41.90
1123;DHT22;548;48.778;9.252;2023-07-08T12:10:33;35.80;43.10
1123;DHT22;548;48.778;9.252;2023-07-08T12:13:02;36.00;43.20
1123;DHT22;548;48.778;9.252;2023-07-08T12:15:31;36.50;41.80
1123;DHT22;548;48.778;9.252;2023-07-08T12:18:12;36.60;41.80
1123;DHT22;548;48.778;9.252;2023-07-08T12:20:42;35.60;43.00
1123;DHT22;548;48.778;9.252;2023-07-08T12:23:11;36.10;42.60
1123;DHT22;548;48.778;9.252;2023-07-08T12:25:38;36.70;42.00
1123;DHT22;548;48.778;9.252;2023-07-08T12:28:05;37.10;41.20
1123;DHT22;548;48.778;9.252;2023-07-08T12:30:32;37.70;40.40
1123;DHT22;548;48.778;9.252;2023-07-08T12:33:00;37.20;40.60
1123;DHT22;548;48.778;9.252;2023-07-08T12:35:29;37.80;40.00
1123;DHT22;548;48.778;9.252;2023-07-08T12:38:01;38.00;39.40
1123;DHT22;548;48.778;9.252;2023-07-08T12:40:29;38.90;38.50
1123;DHT22;548;48.778;9.252;2023-07-08T12:42:57;38.50;38.50
1123;DHT22;548;48.778;9.252;2023-07-08T12:45:32;39.20;38.60
1123;DHT22;548;48.778;9.252;2023-07-08T12:47:59;38.90;38.00
1123;DHT22;548;48.778;9.252;2023-07-08T12:50:25;38.00;39.00
1123;DHT22;548;48.778;9.252;2023-07-08T12:52:52;39.00;37.80
1123;DHT22;548;48.778;9.252;2023-07-08T12:55:20;39.50;37.20
1123;DHT22;548;48.778;9.252;2023-07-08T12:57:49;38.90;37.70
1123;DHT22;548;48.778;9.252;2023-07-08T13:00:24;39.50;37.10
1123;DHT22;548;48.778;9.252;2023-07-08T13:02:56;38.30;37.80
1123;DHT22;548;48.778;9.252;2023-07-08T13:05:26;36.80;39.40
1123;DHT22;548;48.778;9.252;2023-07-08T13:07:53;36.50;40.20
1123;DHT22;548;48.778;9.252;2023-07-08T13:10:25;36.40;40.10
1123;DHT22;548;48.778;9.252;2023-07-08T13:12:57;37.20;39.60
1123;DHT22;548;48.778;9.252;2023-07-08T13:15:28;37.30;38.60
1123;DHT22;548;48.778;9.252;2023-07-08T13:17:56;37.30;38.60
1123;DHT22;548;48.778;9.252;2023-07-08T13:20:24;36.80;39.20
1123;DHT22;548;48.778;9.252;2023-07-08T13:22:54;36.50;39.80
1123;DHT22;548;48.778;9.252;2023-07-08T13:25:28;36.30;39.90
1123;DHT22;548;48.778;9.252;2023-07-08T13:27:57;35.90;39.40
1123;DHT22;548;48.778;9.252;2023-07-08T13:30:26;35.50;40.70
1123;DHT22;548;48.778;9.252;2023-07-08T13:32:54;35.80;40.80
1123;DHT22;548;48.778;9.252;2023-07-08T13:35:27;36.90;39.60
1123;DHT22;548;48.778;9.252;2023-07-08T13:37:55;36.90;39.10
1123;DHT22;548;48.778;9.252;2023-07-08T13:40:27;36.70;39.70
1123;DHT22;548;48.778;9.252;2023-07-08T13:42:54;37.00;38.60
1123;DHT22;548;48.778;9.252;2023-07-08T13:45:24;36.20;38.70
1123;DHT22;548;48.778;9.252;2023-07-08T13:47:59;36.10;39.10
1123;DHT22;548;48.778;9.252;2023-07-08T13:50:31;36.20;38.40
1123;DHT22;548;48.778;9.252;2023-07-08T13:53:02;36.00;38.60
1123;DHT22;548;48.778;9.252;2023-07-08T13:55:30;35.70;38.60
1123;DHT22;548;48.778;9.252;2023-07-08T13:58:00;35.60;39.20
1123;DHT22;548;48.778;9.252;2023-07-08T14:00:29;35.50;40.10
1123;DHT22;548;48.778;9.252;2023-07-08T14:02:59;35.70;39.70
1123;DHT22;548;48.778;9.252;2023-07-08T14:05:26;36.10;39.60
1123;DHT22;548;48.778;9.252;2023-07-08T14:07:53;35.80;39.60
1123;DHT22;548;48.778;9.252;2023-07-08T14:10:20;35.70;40.00
1123;DHT22;548;48.778;9.252;2023-07-08T14:12:48;35.80;40.00
1123;DHT22;548;48.778;9.252;2023-07-08T14:15:15;35.50;39.40
1123;DHT22;548;48.778;9.252;2023-07-08T14:17:42;36.00;39.70
1123;DHT22;548;48.778;9.252;2023-07-08T14:20:11;35.90;40.10
1123;DHT22;548;48.778;9.252;2023-07-08T14:22:38;35.70;40.60
1123;DHT22;548;48.778;9.252;2023-07-08T14:25:08;35.90;40.30
1123;DHT22;548;48.778;9.252;2023-07-08T14:27:35;36.00;40.20
1123;DHT22;548;48.778;9.252;2023-07-08T14:33:24;36.10;40.40
1123;DHT22;548;48.778;9.252;2023-07-08T14:35:51;36.50;40.00
1123;DHT22;548;48.778;9.252;2023-07-08T14:38:17;35.70;40.80
1123;DHT22;548;48.778;9.252;2023-07-08T14:40:44;35.30;41.60
1123;DHT22;548;48.778;9.252;2023-07-08T14:43:15;35.30;41.60
1123;DHT22;548;48.778;9.252;2023-07-08T14:45:46;34.30;42.60
1123;DHT22;548;48.778;9.252;2023-07-08T14:48:14;34.00;43.20
1123;DHT22;548;48.778;9.252;2023-07-08T14:50:42;33.70;43.40
1123;DHT22;548;48.778;9.252;2023-07-08T14:53:09;33.30;43.70
1123;DHT22;548;48.778;9.252;2023-07-08T14:55:36;33.30;44.00
1123;DHT22;548;48.778;9.252;2023-07-08T14:58:04;34.00;43.10
1123;DHT22;548;48.778;9.252;2023-07-08T15:00:30;34.80;42.20
1123;DHT22;548;48.778;9.252;2023-07-08T15:02:57;35.40;41.70
1123;DHT22;548;48.778;9.252;2023-07-08T15:05:26;36.20;41.30
1123;DHT22;548;48.778;9.252;2023-07-08T15:07:55;36.70;40.30
1123;DHT22;548;48.778;9.252;2023-07-08T15:10:28;36.40;40.10
1123;DHT22;548;48.778;9.252;2023-07-08T15:12:55;35.40;41.20
1123;DHT22;548;48.778;9.252;2023-07-08T15:15:27;34.60;42.30
1123;DHT22;548;48.778;9.252;2023-07-08T15:17:56;33.90;43.20
1123;DHT22;548;48.778;9.252;2023-07-08T15:20:23;33.70;43.20
1123;DHT22;548;48.778;9.252;2023-07-08T15:22:50;33.30;43.50
1123;DHT22;548;48.778;9.252;2023-07-08T15:25:18;33.30;43.80
1123;DHT22;548;48.778;9.252;2023-07-08T15:27:47;33.30;43.80
1123;DHT22;548;48.778;9.252;2023-07-08T15:30:17;33.30;44.00
1123;DHT22;548;48.778;9.252;2023-07-08T15:32:45;33.40;44.10
1123;DHT22;548;48.778;9.252;2023-07-08T15:35:14;33.50;43.80
1123;DHT22;548;48.778;9.252;2023-07-08T15:37:42;33.60;44.50
1123;DHT22;548;48.778;9.252;2023-07-08T15:40:10;33.20;44.10
1123;DHT22;548;48.778;9.252;2023-07-08T15:42:41;33.20;44.50
1123;DHT22;548;48.778;9.252;2023-07-08T15:45:15;32.90;45.00
1123;DHT22;548;48.778;9.252;2023-07-08T15:47:44;32.80;44.90
1123;DHT22;548;48.778;9.252;2023-07-08T15:50:13;32.80;44.80
1123;DHT22;548;48.778;9.252;2023-07-08T15:52:40;32.80;45.40
1123;DHT22;548;48.778;9.252;2023-07-08T15:55:07;32.60;45.30
1123;DHT22;548;48.778;9.252;2023-07-08T15:57:40;32.50;45.70
1123;DHT22;548;48.778;9.252;2023-07-08T16:00:15;32.50;45.60
1123;DHT22;548;48.778;9.252;2023-07-08T16:02:47;32.40;45.60
1123;DHT22;548;48.778;9.252;2023-07-08T16:05:14;32.30;45.80
1123;DHT22;548;48.778;9.252;2023-07-08T16:07:41;32.20;45.80
1123;DHT22;548;48.778;9.252;2023-07-08T16:10:08;32.30;46.00
1123;DHT22;548;48.778;9.252;2023-07-08T16:12:35;32.30;45.60
1123;DHT22;548;48.778;9.252;2023-07-08T16:15:05;32.30;45.70
1123;DHT22;548;48.778;9.252;2023-07-08T16:17:35;32.40;45.70
1123;DHT22;548;48.778;9.252;2023-07-08T16:20:04;32.30;45.40
1123;DHT22;548;48.778;9.252;2023-07-08T16:22:35;32.30;45.00
1123;DHT22;548;48.778;9.252;2023-07-08T16:25:02;32.30;45.30
1123;DHT22;548;48.778;9.252;2023-07-08T16:27:28;32.20;45.20
1123;DHT22;548;48.778;9.252;2023-07-08T16:29:55;32.30;45.40
1123;DHT22;548;48.778;9.252;2023-07-08T16:32:23;32.20;45.60
1123;DHT22;548;48.778;9.252;2023-07-08T16:34:50;32.10;45.40
1123;DHT22;548;48.778;9.252;2023-07-08T16:37:16;32.10;46.10
1123;DHT22;548;48.778;9.252;2023-07-08T16:39:43;32.10;46.00